Time;durP1;ratioP1;P1;durP2;ratioP2;P2;SDS_P1;SDS_P2;PMS_P1;PMS_P2;Temp;Humidity;BMP_temperature;BMP_pressure;BME280_temperature;BME280_humidity;BME280_pressure;Samples;Min_cycle;Max_cycle;Signal;HPM_P1;HPM_P2
2023/04/13 00:02:12;;;;;;;6.00;1.70;;;;;;;;;;5036602;28;20564;-66
2023/04/13 00:04:38;;;;;;;3.70;1.97;;;;;;;;;;5036617;28;20179;-67
2023/04/13 00:07:04;;;;;;;5.97;2.33;;;;;;;;;;5036591;28;20718;-68
2023/04/13 00:09:30;;;;;;;3.80;2.00;;;;;;;;;;5036115;28;20183;-68
2023/04/13 00:11:57;;;;;;;5.33;2.00;;;;;;;;;;5035779;28;20596;-68
2023/04/13 00:14:26;;;;;;;6.40;2.30;;;;;;;;;;5018151;28;20187;-68
2023/04/13 00:16:53;;;;;;;3.10;1.87;;;;;;;;;;5017530;28;20190;-68
2023/04/13 00:19:19;;;;;;;8.73;2.20;;;;;;;;;;5035118;28;20665;-67
2023/04/13 00:21:45;;;;;;;4.60;1.80;;;;;;;;;;5035278;28;20198;-68
2023/04/13 00:24:11;;;;;;;3.90;1.40;;;;;;;;;;5036466;28;20646;-67
2023/04/13 00:26:38;;;;;;;3.27;1.93;;;;;;;;;;5018368;28;20175;-68
2023/04/13 00:29:04;;;;;;;4.23;1.87;;;;;;;;;;5036431;28;20236;-68
2023/04/13 00:31:30;;;;;;;2.33;1.50;;;;;;;;;;5018354;28;20206;-67
2023/04/13 00:33:55;;;;;;;2.67;1.57;;;;;;;;;;5018313;28;20183;-66
2023/04/13 00:36:23;;;;;;;4.57;1.90;;;;;;;;;;5035562;28;20179;-66
2023/04/13 00:38:53;;;;;;;3.80;1.77;;;;;;;;;;5035632;28;20221;-67
2023/04/13 00:41:19;;;;;;;4.07;2.27;;;;;;;;;;5034261;28;20210;-66
2023/04/13 00:43:45;;;;;;;3.63;1.80;;;;;;;;;;5017835;28;20187;-67
2023/04/13 00:46:11;;;;;;;4.03;1.90;;;;;;;;;;5018374;28;20183;-67
2023/04/13 00:48:38;;;;;;;2.30;1.90;;;;;;;;;;5035529;28;20175;-66
2023/04/13 00:51:04;;;;;;;1.93;1.30;;;;;;;;;;5035746;28;20252;-66
2023/04/13 00:53:32;;;;;;;3.30;1.93;;;;;;;;;;5018992;28;20277;-66
2023/04/13 00:55:58;;;;;;;4.10;1.77;;;;;;;;;;5036663;28;20171;-66
2023/04/13 00:58:26;;;;;;;3.57;1.40;;;;;;;;;;5035646;28;20214;-68
2023/04/13 01:00:52;;;;;;;9.37;2.00;;;;;;;;;;5036095;28;20175;-66
2023/04/13 01:03:24;;;;;;;7.67;2.17;;;;;;;;;;5035764;28;20536;-67
2023/04/13 01:06:06;;;;;;;4.27;1.90;;;;;;;;;;5035385;28;20175;-66
2023/04/13 01:08:38;;;;;;;8.17;2.03;;;;;;;;;;5017649;28;20277;-67
2023/04/13 01:11:06;;;;;;;4.43;1.60;;;;;;;;;;5035764;28;20223;-66
2023/04/13 01:13:44;;;;;;;2.77;1.73;;;;;;;;;;5017738;28;20264;-66
2023/04/13 01:16:13;;;;;;;2.67;1.77;;;;;;;;;;5035627;28;20258;-66
2023/04/13 01:18:40;;;;;;;2.73;1.47;;;;;;;;;;5035172;28;20676;-66
2023/04/13 01:21:08;;;;;;;4.30;1.60;;;;;;;;;;5035489;28;20195;-66
2023/04/13 01:23:46;;;;;;;3.47;1.23;;;;;;;;;;5035471;28;20190;-67
2023/04/13 01:26:13;;;;;;;4.30;1.80;;;;;;;;;;5035986;28;20159;-67
2023/04/13 01:28:39;;;;;;;3.53;1.53;;;;;;;;;;5036070;28;20605;-67
2023/04/13 01:31:10;;;;;;;2.10;1.80;;;;;;;;;;5039687;28;20644;-66
2023/04/13 01:33:36;;;;;;;2.60;1.50;;;;;;;;;;5021570;28;20649;-69
2023/04/13 01:36:02;;;;;;;2.87;1.60;;;;;;;;;;5039531;28;20263;-67
2023/04/13 01:38:28;;;;;;;4.23;1.90;;;;;;;;;;5039553;28;20260;-67
2023/04/13 01:40:55;;;;;;;4.77;1.77;;;;;;;;;;5039188;28;20203;-67
2023/04/13 01:43:22;;;;;;;3.43;1.93;;;;;;;;;;5039734;28;20199;-67
2023/04/13 01:45:56;;;;;;;4.30;1.83;;;;;;;;;;5039451;28;20172;-67
2023/04/13 01:48:27;;;;;;;3.63;1.63;;;;;;;;;;5039354;28;20202;-67
2023/04/13 01:51:13;;;;;;;2.63;1.73;;;;;;;;;;5038617;28;20176;-67
2023/04/13 01:53:55;;;;;;;3.37;1.73;;;;;;;;;;5038149;28;20179;-66
2023/04/13 01:56:25;;;;;;;1.93;1.40;;;;;;;;;;5038439;28;20262;-66
2023/04/13 01:58:55;;;;;;;3.07;1.60;;;;;;;;;;5038590;28;20195;-68
2023/04/13 02:01:21;;;;;;;4.57;1.73;;;;;;;;;;5037896;28;20195;-66
2023/04/13 02:03:47;;;;;;;5.70;1.97;;;;;;;;;;5037806;28;20175;-67
2023/04/13 02:06:14;;;;;;;2.53;1.80;;;;;;;;;;5020767;28;20217;-66
2023/04/13 02:08:40;;;;;;;4.50;1.67;;;;;;;;;;5020453;28;20198;-67
2023/04/13 02:11:07;;;;;;;3.73;1.80;;;;;;;;;;5037877;28;20237;-65
2023/04/13 02:13:33;;;;;;;3.50;1.80;;;;;;;;;;5038103;28;20183;-67
2023/04/13 02:15:59;;;;;;;3.20;1.77;;;;;;;;;;5038438;28;20176;-66
2023/04/13 02:18:26;;;;;;;3.27;1.77;;;;;;;;;;5020255;28;20207;-68
2023/04/13 02:21:06;;;;;;;5.03;2.13;;;;;;;;;;5038020;28;20182;-70
2023/04/13 02:23:33;;;;;;;2.70;1.87;;;;;;;;;;5038399;28;20155;-66
2023/04/13 02:25:59;;;;;;;2.83;1.73;;;;;;;;;;5038646;28;20175;-64
2023/04/13 02:28:26;;;;;;;3.90;1.67;;;;;;;;;;5038301;28;20633;-66
2023/04/13 02:30:52;;;;;;;4.80;2.27;;;;;;;;;;5039554;28;20180;-66
2023/04/13 02:33:20;;;;;;;4.00;2.07;;;;;;;;;;5037536;28;20557;-66
2023/04/13 02:35:49;;;;;;;3.70;1.67;;;;;;;;;;5038036;28;20176;-66
2023/04/13 02:38:15;;;;;;;3.60;1.80;;;;;;;;;;5037967;28;20209;-66
2023/04/13 02:40:42;;;;;;;3.63;2.00;;;;;;;;;;5037270;28;20199;-65
2023/04/13 02:43:09;;;;;;;4.77;1.90;;;;;;;;;;5020201;28;20179;-66
2023/04/13 02:45:35;;;;;;;3.50;1.30;;;;;;;;;;5037986;28;20197;-66
2023/04/13 02:48:03;;;;;;;2.13;1.30;;;;;;;;;;5038275;28;20171;-66
2023/04/13 02:50:29;;;;;;;2.90;1.40;;;;;;;;;;5037932;28;20220;-66
2023/04/13 02:52:55;;;;;;;4.50;1.60;;;;;;;;;;5020819;28;20578;-66
2023/04/13 02:55:21;;;;;;;2.83;1.57;;;;;;;;;;5038593;28;20182;-66
2023/04/13 02:57:48;;;;;;;4.10;1.87;;;;;;;;;;5038057;28;20549;-66
2023/04/13 03:00:15;;;;;;;4.37;1.60;;;;;;;;;;5038485;28;20247;-66
2023/04/13 03:02:41;;;;;;;4.33;1.60;;;;;;;;;;5037891;28;20257;-67
2023/04/13 03:05:08;;;;;;;4.33;2.03;;;;;;;;;;5037426;28;20178;-68
2023/04/13 03:07:34;;;;;;;5.00;2.17;;;;;;;;;;5039216;28;20219;-66
2023/04/13 03:10:03;;;;;;;2.73;1.37;;;;;;;;;;5019949;28;20175;-66
2023/04/13 03:12:30;;;;;;;3.87;1.70;;;;;;;;;;5036842;28;20202;-67
2023/04/13 03:14:56;;;;;;;6.93;1.67;;;;;;;;;;5037055;28;20194;-66
2023/04/13 03:17:22;;;;;;;4.03;2.10;;;;;;;;;;5019672;28;20274;-67
2023/04/13 03:19:48;;;;;;;3.47;1.67;;;;;;;;;;5036742;28;20670;-68
2023/04/13 03:22:14;;;;;;;3.03;1.60;;;;;;;;;;5019478;28;20677;-66
2023/04/13 03:24:41;;;;;;;2.27;1.53;;;;;;;;;;5037511;28;20171;-67
2023/04/13 03:27:07;;;;;;;5.33;1.93;;;;;;;;;;5037345;28;20524;-65
2023/04/13 03:29:33;;;;;;;7.93;2.07;;;;;;;;;;5036893;28;20210;-67
2023/04/13 03:31:59;;;;;;;5.93;1.93;;;;;;;;;;5037208;28;20246;-66
2023/04/13 03:34:25;;;;;;;2.57;1.47;;;;;;;;;;5019091;28;20230;-65
2023/04/13 03:36:51;;;;;;;2.67;1.30;;;;;;;;;;5036804;28;20179;-66
2023/04/13 03:39:17;;;;;;;4.07;1.60;;;;;;;;;;5037218;28;20199;-67
2023/04/13 03:41:43;;;;;;;4.80;1.67;;;;;;;;;;5036473;28;20195;-66
2023/04/13 03:44:10;;;;;;;2.03;1.30;;;;;;;;;;5036841;28;20179;-66
2023/04/13 03:46:36;;;;;;;4.40;1.50;;;;;;;;;;5019060;28;20333;-66
2023/04/13 03:49:04;;;;;;;3.83;1.70;;;;;;;;;;5036812;28;20190;-66
2023/04/13 03:51:30;;;;;;;4.00;1.60;;;;;;;;;;5036602;28;20206;-68
2023/04/13 03:53:56;;;;;;;5.23;1.50;;;;;;;;;;5036698;28;20203;-67
2023/04/13 03:56:22;;;;;;;3.57;1.50;;;;;;;;;;5036735;28;20235;-67
2023/04/13 03:58:48;;;;;;;4.83;1.60;;;;;;;;;;5018386;28;20261;-66
2023/04/13 04:01:15;;;;;;;5.20;1.53;;;;;;;;;;5036444;28;20249;-66
2023/04/13 04:03:41;;;;;;;2.90;1.20;;;;;;;;;;5036506;28;20196;-66
2023/04/13 04:06:07;;;;;;;5.87;1.87;;;;;;;;;;5036866;28;20285;-65
2023/04/13 04:08:33;;;;;;;1.20;1.00;;;;;;;;;;5036502;28;20274;-65
2023/04/13 04:10:59;;;;;;;2.53;1.40;;;;;;;;;;5017307;28;20246;-66
2023/04/13 04:13:25;;;;;;;3.63;1.60;;;;;;;;;;5034762;28;20167;-65
2023/04/13 04:15:51;;;;;;;3.03;1.67;;;;;;;;;;5035430;28;20186;-65
2023/04/13 04:18:17;;;;;;;2.97;1.50;;;;;;;;;;5036295;28;20545;-65
2023/04/13 04:20:43;;;;;;;3.93;1.80;;;;;;;;;;5036553;28;20171;-65
2023/04/13 04:23:11;;;;;;;3.73;1.60;;;;;;;;;;5035876;28;20199;-64
2023/04/13 04:25:38;;;;;;;3.57;1.73;;;;;;;;;;5036402;28;20198;-64
2023/04/13 04:28:05;;;;;;;3.83;1.77;;;;;;;;;;5035988;28;20179;-64
2023/04/13 04:30:32;;;;;;;4.40;1.87;;;;;;;;;;5036462;28;20229;-65
2023/04/13 04:32:58;;;;;;;6.87;1.97;;;;;;;;;;5036058;28;20672;-64
2023/04/13 04:35:24;;;;;;;2.73;1.70;;;;;;;;;;5036043;28;20237;-64
2023/04/13 04:37:51;;;;;;;4.17;1.80;;;;;;;;;;5035668;28;20186;-65
2023/04/13 04:40:17;;;;;;;3.80;1.60;;;;;;;;;;5018115;28;20186;-65
2023/04/13 04:42:43;;;;;;;5.00;1.60;;;;;;;;;;5049103;22;20227;-70
2023/04/13 04:45:15;;;;;;;4.47;1.73;;;;;;;;;;5013692;28;20178;-70
2023/04/13 04:47:42;;;;;;;4.40;1.90;;;;;;;;;;4996023;28;20175;-70
2023/04/13 04:50:09;;;;;;;2.67;1.50;;;;;;;;;;4995785;28;20188;-70
2023/04/13 04:52:35;;;;;;;3.37;1.50;;;;;;;;;;5013694;28;20205;-69
2023/04/13 04:55:01;;;;;;;5.53;2.10;;;;;;;;;;5013488;28;20175;-69
2023/04/13 04:57:27;;;;;;;8.10;2.70;;;;;;;;;;5013401;28;20198;-70
2023/04/13 04:59:53;;;;;;;4.03;2.03;;;;;;;;;;5013936;28;20633;-69
2023/04/13 05:02:19;;;;;;;3.87;1.90;;;;;;;;;;5013380;28;20557;-69
2023/04/13 05:04:44;;;;;;;3.90;2.13;;;;;;;;;;5013140;28;20611;-69
2023/04/13 05:07:15;;;;;;;4.13;2.10;;;;;;;;;;4995783;28;20176;-69
2023/04/13 05:09:41;;;;;;;6.93;2.20;;;;;;;;;;4995686;28;20198;-69
2023/04/13 05:12:07;;;;;;;4.40;2.13;;;;;;;;;;5013291;28;20662;-69
2023/04/13 05:14:33;;;;;;;4.57;2.07;;;;;;;;;;5013307;28;20183;-69
2023/04/13 05:17:00;;;;;;;6.43;2.27;;;;;;;;;;5013471;28;20203;-69
2023/04/13 05:19:26;;;;;;;4.97;2.73;;;;;;;;;;4995521;28;20211;-69
2023/04/13 05:21:52;;;;;;;4.90;2.40;;;;;;;;;;5013213;28;20218;-69
2023/04/13 05:24:18;;;;;;;7.00;2.43;;;;;;;;;;5013217;28;20190;-69
2023/04/13 05:26:44;;;;;;;5.73;2.43;;;;;;;;;;4996583;28;20201;-69
2023/04/13 05:29:10;;;;;;;7.03;2.93;;;;;;;;;;4995667;28;20658;-69
2023/04/13 05:31:36;;;;;;;4.40;2.30;;;;;;;;;;4995798;28;20622;-70
2023/04/13 05:34:02;;;;;;;4.27;2.30;;;;;;;;;;5014006;28;20184;-69
2023/04/13 05:36:30;;;;;;;7.83;3.17;;;;;;;;;;4995661;28;20187;-69
2023/04/13 05:38:56;;;;;;;5.77;2.43;;;;;;;;;;5013531;28;20250;-69
2023/04/13 05:41:22;;;;;;;4.50;2.43;;;;;;;;;;4995626;28;20183;-69
2023/04/13 05:43:48;;;;;;;7.93;2.60;;;;;;;;;;4995338;28;20212;-69
2023/04/13 05:46:17;;;;;;;4.93;2.50;;;;;;;;;;4995343;28;20190;-69
2023/04/13 05:48:43;;;;;;;7.60;2.97;;;;;;;;;;4995379;28;20620;-69
2023/04/13 05:51:11;;;;;;;7.50;2.80;;;;;;;;;;5013108;28;20214;-69
2023/04/13 05:53:37;;;;;;;7.73;3.07;;;;;;;;;;4995200;28;20204;-69
2023/04/13 05:56:03;;;;;;;6.83;2.53;;;;;;;;;;5013144;28;20179;-69
2023/04/13 05:58:30;;;;;;;5.67;2.60;;;;;;;;;;4995169;28;20266;-67
2023/04/13 06:00:56;;;;;;;5.50;2.67;;;;;;;;;;5012888;28;20255;-69
2023/04/13 06:03:22;;;;;;;6.20;2.70;;;;;;;;;;4995196;28;20211;-69
2023/04/13 06:05:48;;;;;;;4.13;2.57;;;;;;;;;;5012861;28;20207;-69
2023/04/13 06:08:14;;;;;;;4.47;2.77;;;;;;;;;;4995255;28;20184;-69
2023/04/13 06:10:40;;;;;;;4.90;2.47;;;;;;;;;;4995254;28;20204;-69
2023/04/13 06:13:07;;;;;;;3.27;2.30;;;;;;;;;;5012778;28;20260;-69
2023/04/13 06:15:33;;;;;;;8.83;2.27;;;;;;;;;;5015026;28;20275;-69
2023/04/13 06:18:00;;;;;;;4.60;2.47;;;;;;;;;;5016979;28;20208;-69
2023/04/13 06:20:26;;;;;;;3.77;2.20;;;;;;;;;;4998792;28;20183;-69
2023/04/13 06:22:51;;;;;;;7.40;2.40;;;;;;;;;;5016082;28;20200;-69
2023/04/13 06:25:17;;;;;;;5.00;2.20;;;;;;;;;;5016362;28;20678;-69
2023/04/13 06:27:43;;;;;;;4.13;2.53;;;;;;;;;;5015943;28;20210;-69
2023/04/13 06:30:10;;;;;;;7.07;2.77;;;;;;;;;;5015941;28;20668;-69
2023/04/13 06:32:37;;;;;;;8.10;2.47;;;;;;;;;;5016086;28;20557;-69
2023/04/13 06:35:04;;;;;;;4.87;2.20;;;;;;;;;;5015945;28;20303;-69
2023/04/13 06:37:31;;;;;;;7.10;2.67;;;;;;;;;;5015870;28;20176;-69
2023/04/13 06:39:57;;;;;;;4.37;2.57;;;;;;;;;;5015721;28;20274;-69
2023/04/13 06:42:23;;;;;;;10.40;4.77;;;;;;;;;;4998072;28;20220;-68
2023/04/13 06:44:49;;;;;;;7.30;3.20;;;;;;;;;;4998167;28;20788;-67
2023/04/13 06:47:15;;;;;;;4.13;2.83;;;;;;;;;;4998138;28;20211;-68
2023/04/13 06:49:41;;;;;;;3.50;2.67;;;;;;;;;;4997938;28;20180;-68
2023/04/13 06:52:08;;;;;;;5.67;2.90;;;;;;;;;;5015772;28;20202;-68
2023/04/13 06:54:34;;;;;;;4.43;2.70;;;;;;;;;;4997903;28;20253;-69
2023/04/13 06:57:01;;;;;;;3.17;2.33;;;;;;;;;;4998926;28;20222;-69
2023/04/13 06:59:27;;;;;;;4.73;2.43;;;;;;;;;;4997939;28;20588;-69
2023/04/13 07:01:53;;;;;;;3.63;2.00;;;;;;;;;;5015746;28;20195;-69
2023/04/13 07:04:19;;;;;;;4.63;2.10;;;;;;;;;;5015569;28;20175;-69
2023/04/13 07:06:46;;;;;;;6.93;2.43;;;;;;;;;;5016241;28;20176;-69
2023/04/13 07:09:11;;;;;;;2.87;1.70;;;;;;;;;;5015484;28;20634;-69
2023/04/13 07:11:37;;;;;;;2.57;1.50;;;;;;;;;;5015569;28;20182;-69
2023/04/13 07:14:04;;;;;;;4.77;2.13;;;;;;;;;;4997847;28;20226;-68
2023/04/13 07:16:29;;;;;;;3.23;1.87;;;;;;;;;;5015728;28;20217;-69
2023/04/13 07:18:55;;;;;;;2.00;1.63;;;;;;;;;;5015453;28;20208;-69
2023/04/13 07:21:21;;;;;;;6.87;2.77;;;;;;;;;;5015179;28;20267;-69
2023/04/13 07:23:47;;;;;;;4.97;2.30;;;;;;;;;;4997313;28;20191;-69
2023/04/13 07:26:14;;;;;;;4.13;1.90;;;;;;;;;;5014905;28;20172;-69
2023/04/13 07:28:40;;;;;;;8.70;5.17;;;;;;;;;;5014485;28;20638;-69
2023/04/13 07:31:06;;;;;;;10.33;6.03;;;;;;;;;;5014789;28;20183;-69
2023/04/13 07:33:32;;;;;;;8.00;4.30;;;;;;;;;;5014869;28;20204;-69
2023/04/13 07:35:58;;;;;;;6.90;3.97;;;;;;;;;;4997190;28;20194;-69
2023/04/13 07:38:24;;;;;;;8.97;4.53;;;;;;;;;;5014686;28;20287;-69
2023/04/13 07:40:51;;;;;;;6.80;4.33;;;;;;;;;;4997161;28;20590;-69
2023/04/13 07:43:17;;;;;;;4.17;2.10;;;;;;;;;;5014473;28;20290;-69
2023/04/13 07:45:43;;;;;;;2.30;1.87;;;;;;;;;;5014524;28;20184;-69
2023/04/13 07:48:09;;;;;;;5.10;2.20;;;;;;;;;;5014762;28;20190;-69
2023/04/13 07:50:42;;;;;;;5.87;2.10;;;;;;;;;;5014538;28;20226;-69
2023/04/13 07:53:08;;;;;;;6.73;4.43;;;;;;;;;;5014409;28;20256;-69
2023/04/13 07:55:35;;;;;;;6.43;4.20;;;;;;;;;;4996806;28;20614;-69
2023/04/13 07:58:01;;;;;;;9.70;5.47;;;;;;;;;;5014686;28;20187;-69
2023/04/13 08:00:27;;;;;;;8.37;4.03;;;;;;;;;;5014254;28;20176;-69
2023/04/13 08:02:54;;;;;;;7.63;3.83;;;;;;;;;;5014217;28;20561;-69
2023/04/13 08:05:20;;;;;;;3.80;1.93;;;;;;;;;;4996667;28;20234;-69
2023/04/13 08:07:47;;;;;;;4.93;2.20;;;;;;;;;;5014682;28;20262;-69
2023/04/13 08:10:13;;;;;;;3.93;2.17;;;;;;;;;;5014349;28;20180;-69
2023/04/13 08:12:40;;;;;;;6.60;2.57;;;;;;;;;;5013965;28;20200;-69
2023/04/13 08:15:06;;;;;;;4.43;2.07;;;;;;;;;;4996443;28;20194;-69
2023/04/13 08:17:32;;;;;;;3.93;2.03;;;;;;;;;;5013937;28;20219;-69
2023/04/13 08:19:58;;;;;;;9.27;3.43;;;;;;;;;;5014074;28;20235;-69
2023/04/13 08:22:24;;;;;;;6.10;2.97;;;;;;;;;;5014498;28;20670;-69
2023/04/13 08:24:50;;;;;;;8.47;3.47;;;;;;;;;;5014539;28;20570;-69
2023/04/13 08:27:16;;;;;;;5.27;2.20;;;;;;;;;;5013830;28;20569;-69
2023/04/13 08:29:42;;;;;;;12.30;7.40;;;;;;;;;;5014023;28;20736;-69
2023/04/13 08:32:08;;;;;;;10.90;6.07;;;;;;;;;;5013848;28;20704;-69
2023/04/13 08:34:34;;;;;;;8.07;4.00;;;;;;;;;;4996298;28;20188;-69
2023/04/13 08:37:00;;;;;;;11.47;6.30;;;;;;;;;;4996262;28;20180;-69
2023/04/13 08:39:26;;;;;;;7.57;3.10;;;;;;;;;;5012847;28;20648;-69
2023/04/13 08:41:52;;;;;;;6.63;2.70;;;;;;;;;;5013759;28;20299;-69
2023/04/13 08:44:18;;;;;;;5.17;2.37;;;;;;;;;;5013664;28;20247;-69
2023/04/13 08:46:45;;;;;;;5.17;2.27;;;;;;;;;;5013639;28;20271;-69
2023/04/13 08:49:11;;;;;;;7.23;3.13;;;;;;;;;;5014254;28;20229;-69
2023/04/13 08:51:38;;;;;;;6.53;2.90;;;;;;;;;;5013528;28;20175;-69
2023/04/13 08:54:04;;;;;;;5.20;2.40;;;;;;;;;;4996944;28;20183;-69
2023/04/13 08:56:31;;;;;;;6.33;2.53;;;;;;;;;;5013418;28;20176;-69
2023/04/13 08:59:03;;;;;;;4.87;3.63;;;;;;;;;;4995646;28;20212;-69
2023/04/13 09:01:31;;;;;;;6.27;2.83;;;;;;;;;;4995594;28;20658;-69
2023/04/13 09:04:07;;;;;;;9.27;3.20;;;;;;;;;;4995727;28;20180;-69
2023/04/13 09:06:34;;;;;;;8.30;3.00;;;;;;;;;;5013346;28;20626;-69
2023/04/13 09:09:06;;;;;;;7.33;2.57;;;;;;;;;;5013299;28;20262;-69
2023/04/13 09:11:32;;;;;;;5.23;2.50;;;;;;;;;;4995572;28;20183;-69
2023/04/13 09:13:58;;;;;;;6.67;2.47;;;;;;;;;;5013453;28;20183;-69
2023/04/13 09:16:24;;;;;;;8.57;2.70;;;;;;;;;;5013616;28;20176;-68
2023/04/13 09:18:51;;;;;;;7.80;2.70;;;;;;;;;;5013239;28;20249;-68
2023/04/13 09:21:17;;;;;;;6.77;2.60;;;;;;;;;;4995747;28;20184;-68
2023/04/13 09:23:56;;;;;;;5.43;2.33;;;;;;;;;;5013612;28;20219;-68
2023/04/13 09:26:22;;;;;;;6.97;2.50;;;;;;;;;;5013350;28;20254;-68
2023/04/13 09:28:49;;;;;;;8.40;2.37;;;;;;;;;;4995659;28;20237;-68
2023/04/13 09:31:15;;;;;;;7.60;2.63;;;;;;;;;;5013469;28;20207;-68
2023/04/13 09:33:51;;;;;;;9.77;2.53;;;;;;;;;;4995822;28;20207;-68
2023/04/13 09:36:18;;;;;;;5.47;2.33;;;;;;;;;;5013497;28;20668;-68
2023/04/13 09:38:45;;;;;;;11.27;2.40;;;;;;;;;;5014462;28;20661;-68
2023/04/13 09:41:11;;;;;;;5.00;2.40;;;;;;;;;;5015394;28;20545;-68
2023/04/13 09:43:37;;;;;;;7.07;2.60;;;;;;;;;;5002683;28;20219;-68
2023/04/13 09:46:13;;;;;;;6.30;2.40;;;;;;;;;;4996905;28;20180;-68
2023/04/13 09:48:39;;;;;;;8.23;2.73;;;;;;;;;;5013342;28;20557;-68
2023/04/13 09:51:07;;;;;;;6.13;2.60;;;;;;;;;;5015430;28;20238;-68
2023/04/13 09:53:45;;;;;;;8.53;2.27;;;;;;;;;;4999578;28;20210;-68
2023/04/13 09:56:11;;;;;;;10.33;3.40;;;;;;;;;;5016885;28;20634;-68
2023/04/13 09:58:44;;;;;;;8.23;2.50;;;;;;;;;;5016879;28;20215;-69
2023/04/13 10:01:10;;;;;;;12.00;2.80;;;;;;;;;;5016588;28;20179;-68
2023/04/13 10:03:37;;;;;;;9.60;2.60;;;;;;;;;;5016728;28;20274;-69
2023/04/13 10:06:06;;;;;;;7.23;3.20;;;;;;;;;;5016329;28;20203;-68
2023/04/13 10:08:33;;;;;;;10.47;2.90;;;;;;;;;;5016224;28;20230;-68
2023/04/13 10:11:00;;;;;;;10.43;2.97;;;;;;;;;;4998746;28;20188;-68
2023/04/13 10:13:30;;;;;;;10.53;3.47;;;;;;;;;;4998673;28;20208;-68
2023/04/13 10:16:15;;;;;;;9.83;3.23;;;;;;;;;;5016423;28;20188;-68
2023/04/13 10:18:58;;;;;;;8.50;2.80;;;;;;;;;;4998456;28;20696;-68
2023/04/13 10:21:25;;;;;;;10.80;2.30;;;;;;;;;;4998969;28;20588;-68
2023/04/13 10:23:51;;;;;;;7.97;2.57;;;;;;;;;;5016621;28;20207;-68
2023/04/13 10:26:18;;;;;;;5.00;2.70;;;;;;;;;;5016284;28;20175;-69
2023/04/13 10:28:46;;;;;;;9.23;2.90;;;;;;;;;;5016397;28;20183;-69
2023/04/13 10:31:13;;;;;;;7.77;2.80;;;;;;;;;;5017603;28;20638;-68
2023/04/13 10:33:49;;;;;;;6.90;2.70;;;;;;;;;;4998805;28;20204;-68
2023/04/13 10:36:15;;;;;;;8.47;3.17;;;;;;;;;;5015978;28;20176;-68
2023/04/13 10:38:44;;;;;;;7.63;2.90;;;;;;;;;;5016001;28;20808;-68
2023/04/13 10:41:21;;;;;;;10.30;3.20;;;;;;;;;;4998390;28;20187;-69
2023/04/13 10:43:47;;;;;;;8.53;4.00;;;;;;;;;;5015725;28;20215;-69
2023/04/13 10:46:13;;;;;;;7.83;2.37;;;;;;;;;;5015755;28;20282;-69
2023/04/13 10:48:42;;;;;;;8.50;2.83;;;;;;;;;;4998259;28;20274;-68
2023/04/13 10:51:08;;;;;;;9.73;2.70;;;;;;;;;;4998410;28;20188;-68
2023/04/13 10:53:34;;;;;;;9.97;3.00;;;;;;;;;;4999466;28;20298;-68
2023/04/13 10:56:01;;;;;;;7.40;2.90;;;;;;;;;;5017480;28;20198;-68
2023/04/13 10:58:28;;;;;;;14.20;5.23;;;;;;;;;;5016640;28;20744;-68
2023/04/13 11:00:54;;;;;;;9.43;3.97;;;;;;;;;;5015120;23;20230;-66
2023/04/13 11:03:20;;;;;;;10.60;3.63;;;;;;;;;;5035076;28;20175;-67
2023/04/13 11:05:56;;;;;;;9.83;4.27;;;;;;;;;;5017714;28;20653;-66
2023/04/13 11:08:23;;;;;;;12.63;5.83;;;;;;;;;;5036184;28;20254;-67
2023/04/13 11:10:49;;;;;;;18.07;10.07;;;;;;;;;;5017673;28;20195;-67
2023/04/13 11:13:15;;;;;;;9.03;3.57;;;;;;;;;;5036216;28;20164;-66
2023/04/13 11:15:41;;;;;;;9.30;2.87;;;;;;;;;;5037835;28;20201;-67
2023/04/13 11:18:07;;;;;;;8.83;3.07;;;;;;;;;;5019347;28;20216;-67
2023/04/13 11:20:34;;;;;;;9.20;2.60;;;;;;;;;;5037922;28;20183;-65
2023/04/13 11:23:02;;;;;;;10.63;3.27;;;;;;;;;;5019175;28;20240;-67
2023/04/13 11:25:28;;;;;;;6.47;2.70;;;;;;;;;;5035116;28;20281;-67
2023/04/13 11:27:58;;;;;;;7.20;3.07;;;;;;;;;;5017318;28;20572;-68
2023/04/13 11:30:24;;;;;;;10.97;3.10;;;;;;;;;;5035614;28;20182;-66
2023/04/13 11:32:52;;;;;;;9.93;3.17;;;;;;;;;;5035091;28;20167;-66
2023/04/13 11:35:18;;;;;;;14.83;3.63;;;;;;;;;;5034752;28;20258;-67
2023/04/13 11:37:49;;;;;;;6.80;3.10;;;;;;;;;;5034672;28;20179;-67
2023/04/13 11:40:20;;;;;;;10.07;3.03;;;;;;;;;;5034690;28;20194;-66
2023/04/13 11:42:47;;;;;;;6.50;3.07;;;;;;;;;;5034608;28;20206;-66
2023/04/13 11:45:17;;;;;;;7.97;3.27;;;;;;;;;;5034755;28;20649;-66
2023/04/13 11:47:44;;;;;;;7.17;2.93;;;;;;;;;;5034546;28;20653;-66
2023/04/13 11:50:11;;;;;;;5.67;2.80;;;;;;;;;;5016848;28;20560;-66
2023/04/13 11:52:37;;;;;;;8.97;4.63;;;;;;;;;;5016740;28;20233;-67
2023/04/13 11:55:05;;;;;;;7.07;3.27;;;;;;;;;;5034953;28;20175;-66
2023/04/13 11:57:32;;;;;;;7.73;2.70;;;;;;;;;;5036126;28;20220;-65
2023/04/13 11:59:58;;;;;;;8.33;3.53;;;;;;;;;;5034915;28;20252;-66
2023/04/13 12:02:27;;;;;;;12.53;4.67;;;;;;;;;;5033956;28;20689;-66
2023/04/13 12:04:54;;;;;;;10.37;4.10;;;;;;;;;;5016769;28;20197;-66
2023/04/13 12:07:20;;;;;;;8.93;3.43;;;;;;;;;;5016493;28;20175;-67
2023/04/13 12:09:47;;;;;;;9.07;2.53;;;;;;;;;;5016447;28;20274;-65
2023/04/13 12:12:17;;;;;;;7.03;2.80;;;;;;;;;;5016081;28;20203;-65
2023/04/13 12:14:43;;;;;;;8.23;2.53;;;;;;;;;;5016108;28;20179;-65
2023/04/13 12:17:10;;;;;;;8.60;3.30;;;;;;;;;;5033895;28;20210;-65
2023/04/13 12:19:39;;;;;;;7.00;2.80;;;;;;;;;;5033810;28;20620;-65
2023/04/13 12:22:05;;;;;;;12.03;3.03;;;;;;;;;;5015932;28;20203;-65
2023/04/13 12:24:32;;;;;;;10.30;2.77;;;;;;;;;;5016138;28;20236;-68
2023/04/13 12:27:01;;;;;;;7.97;3.00;;;;;;;;;;5016098;28;20225;-66
2023/04/13 12:29:27;;;;;;;8.10;2.90;;;;;;;;;;5033705;28;20649;-67
2023/04/13 12:31:58;;;;;;;10.77;4.43;;;;;;;;;;5033592;28;20202;-65
2023/04/13 12:34:24;;;;;;;10.77;4.20;;;;;;;;;;5033929;28;20170;-65
2023/04/13 12:36:50;;;;;;;12.13;3.73;;;;;;;;;;5033764;28;20175;-67
2023/04/13 12:39:16;;;;;;;14.13;7.47;;;;;;;;;;5033667;28;20252;-66
2023/04/13 12:41:42;;;;;;;11.50;4.47;;;;;;;;;;5033444;28;20203;-66
2023/04/13 12:44:09;;;;;;;8.00;2.83;;;;;;;;;;5033817;28;20186;-66
2023/04/13 12:46:35;;;;;;;8.03;4.63;;;;;;;;;;5015844;28;20181;-66
2023/04/13 12:49:01;;;;;;;12.03;3.40;;;;;;;;;;5015868;28;20179;-66
2023/04/13 12:51:27;;;;;;;12.03;5.00;;;;;;;;;;5016014;28;20685;-65
2023/04/13 12:53:53;;;;;;;8.27;3.53;;;;;;;;;;5033538;28;20183;-65
2023/04/13 12:56:19;;;;;;;10.37;2.63;;;;;;;;;;5015802;28;20186;-65
2023/04/13 12:58:45;;;;;;;10.53;2.90;;;;;;;;;;5033902;28;20229;-67
2023/04/13 13:01:12;;;;;;;9.77;3.20;;;;;;;;;;5015817;28;20585;-66
2023/04/13 13:03:38;;;;;;;4.50;2.20;;;;;;;;;;5015971;28;20167;-67
2023/04/13 13:06:05;;;;;;;7.00;2.30;;;;;;;;;;5015884;28;20213;-67
2023/04/13 13:08:31;;;;;;;6.77;2.47;;;;;;;;;;5033533;28;20550;-66
2023/04/13 13:10:57;;;;;;;4.77;2.30;;;;;;;;;;5033328;28;20274;-66
2023/04/13 13:13:23;;;;;;;6.63;2.50;;;;;;;;;;5033293;28;20528;-67
2023/04/13 13:15:49;;;;;;;6.17;2.80;;;;;;;;;;5033451;28;20183;-65
2023/04/13 13:18:14;;;;;;;6.33;2.67;;;;;;;;;;5033726;28;20614;-66
2023/04/13 13:20:40;;;;;;;7.07;2.53;;;;;;;;;;5033044;28;20178;-66
2023/04/13 13:23:10;;;;;;;6.37;3.27;;;;;;;;;;5033426;28;20624;-66
2023/04/13 13:25:36;;;;;;;9.37;2.67;;;;;;;;;;5034849;28;20668;-67
2023/04/13 13:28:07;;;;;;;3.90;1.93;;;;;;;;;;5019653;28;20182;-68
2023/04/13 13:30:37;;;;;;;6.87;2.90;;;;;;;;;;5019662;28;20175;-65
2023/04/13 13:33:03;;;;;;;11.80;3.00;;;;;;;;;;5019354;28;20675;-65
2023/04/13 13:35:32;;;;;;;9.50;2.80;;;;;;;;;;5037178;28;20186;-65
2023/04/13 13:37:59;;;;;;;7.67;2.77;;;;;;;;;;5019131;28;20210;-65
2023/04/13 13:40:25;;;;;;;9.63;2.97;;;;;;;;;;5037102;28;20206;-65
2023/04/13 13:42:52;;;;;;;10.90;3.07;;;;;;;;;;5036604;28;20175;-65
2023/04/13 13:45:18;;;;;;;8.03;2.87;;;;;;;;;;5036643;28;20254;-65
2023/04/13 13:47:45;;;;;;;7.53;2.23;;;;;;;;;;5018773;28;20188;-66
2023/04/13 13:50:11;;;;;;;8.40;3.10;;;;;;;;;;5018764;28;20299;-65
2023/04/13 13:52:37;;;;;;;5.77;2.97;;;;;;;;;;5018668;28;20199;-65
2023/04/13 13:55:04;;;;;;;5.93;2.63;;;;;;;;;;5036631;28;20178;-65
2023/04/13 13:57:30;;;;;;;7.37;3.07;;;;;;;;;;5036452;28;20198;-66
2023/04/13 13:59:55;;;;;;;8.50;2.97;;;;;;;;;;5018653;28;20673;-65
2023/04/13 14:02:21;;;;;;;8.50;2.83;;;;;;;;;;5018382;28;20233;-66
2023/04/13 14:04:47;;;;;;;9.07;3.20;;;;;;;;;;5036493;28;20258;-67
2023/04/13 14:07:14;;;;;;;6.07;2.93;;;;;;;;;;5037566;28;20175;-65
2023/04/13 14:09:40;;;;;;;9.33;3.30;;;;;;;;;;5038752;28;20179;-66
2023/04/13 14:12:06;;;;;;;7.37;2.60;;;;;;;;;;5018506;28;20265;-65
2023/04/13 14:14:32;;;;;;;8.57;2.77;;;;;;;;;;5036077;28;20179;-66
2023/04/13 14:16:58;;;;;;;6.20;2.70;;;;;;;;;;5036466;28;20187;-66
2023/04/13 14:19:24;;;;;;;6.77;2.50;;;;;;;;;;5018243;28;20210;-66
2023/04/13 14:21:52;;;;;;;6.80;2.80;;;;;;;;;;5036005;28;20198;-66
2023/04/13 14:24:18;;;;;;;7.27;2.97;;;;;;;;;;5018517;28;20183;-65
2023/04/13 14:26:44;;;;;;;6.83;2.50;;;;;;;;;;5018698;28;20642;-67
2023/04/13 14:29:10;;;;;;;6.67;2.70;;;;;;;;;;5036685;28;20179;-66
2023/04/13 14:31:36;;;;;;;9.53;2.80;;;;;;;;;;5018400;28;20694;-66
2023/04/13 14:34:02;;;;;;;6.73;2.80;;;;;;;;;;5036576;28;20202;-65
2023/04/13 14:36:28;;;;;;;9.90;4.77;;;;;;;;;;5036868;28;20195;-66
2023/04/13 14:38:55;;;;;;;8.43;2.77;;;;;;;;;;5036152;28;20270;-66
2023/04/13 14:41:21;;;;;;;4.87;2.60;;;;;;;;;;5036276;28;20265;-68